Tieton, Washington
Current Conditions -  °F | °C
As of 8:33 AM on Friday 21 Nov 2014 (Local Time) from KYKM Reporting Station
Haze Haze  
Wind Chill: 29°   Ceiling: 5000
Heat Index: 29°   Visibility: 2.5mi
Dew Point: 25°   Wind: 0mph
Humidity: 85%   Direction: NA
Pressure: 29.93"   Gusts: NA
Location:  46.7°N, 120.76°W
Report Text: KYKM 211633Z 00000KT 2 1/2SM BR FEW008 BKN050 M02/M04 A2993 RMK AO2 T10171039
Loading
Personal Weather Stations






























Interactive Weather Map New forecast layout! Learn more

10-Day Weather Forecast

Advertisements
Track Severe Weather on mobile